<?xml version="1.0" encoding="UTF-8" standalone="no" ?>
<gpx xmlns="http://www.topografix.com/GPX/1/1" xmlns:xsi="http://www.w3.org/2001/XMLSchema-instance" xsi:schemaLocation="http://www.topografix.com/GPX/1/1 http://www.topografix.com/GPX/1/1/gpx.xsd" version="1.1" creator="VisuGPX - https://www.visugpx.com">
  <metadata>
    <name>Croix de Chamrousse en boucle par le Lac Achard </name>
    <desc><![CDATA[Boucle Arselle - Lac Achard - Col Infernet - Croix de Chamrousse - Bachat Bouloud ]]></desc>
  </metadata>
  <trk>
    <name><![CDATA[28 sept. 2013]]></name>
    <cmt><![CDATA[12:34:26]]></cmt>
    <desc><![CDATA[comment ...]]></desc>
    <trkseg>
      <trkpt lat="45.09958" lon="5.87794">
        <ele>1649</ele>
        <time>2013-09-28T12:34:12Z</time>
      </trkpt>
      <trkpt lat="45.09968" lon="5.8781">
        <ele>1649</ele>
        <time>2013-09-28T12:35:16Z</time>
      </trkpt>
      <trkpt lat="45.09983" lon="5.87877">
        <ele>1650</ele>
        <time>2013-09-28T12:36:22Z</time>
      </trkpt>
      <trkpt lat="45.10007" lon="5.8795">
        <ele>1653</ele>
        <time>2013-09-28T12:37:33Z</time>
      </trkpt>
      <trkpt lat="45.10045" lon="5.88053">
        <ele>1652</ele>
        <time>2013-09-28T12:38:51Z</time>
      </trkpt>
      <trkpt lat="45.10072" lon="5.88151">
        <ele>1662</ele>
        <time>2013-09-28T12:40:09Z</time>
      </trkpt>
      <trkpt lat="45.1009" lon="5.88258">
        <ele>1662</ele>
        <time>2013-09-28T12:41:24Z</time>
      </trkpt>
      <trkpt lat="45.10117" lon="5.88352">
        <ele>1663</ele>
        <time>2013-09-28T12:42:42Z</time>
      </trkpt>
      <trkpt lat="45.10135" lon="5.88469">
        <ele>1653</ele>
        <time>2013-09-28T12:44:00Z</time>
      </trkpt>
      <trkpt lat="45.10152" lon="5.88559">
        <ele>1655</ele>
        <time>2013-09-28T12:45:18Z</time>
      </trkpt>
      <trkpt lat="45.10169" lon="5.88642">
        <ele>1662</ele>
        <time>2013-09-28T12:46:36Z</time>
      </trkpt>
      <trkpt lat="45.10213" lon="5.88717">
        <ele>1664</ele>
        <time>2013-09-28T12:47:54Z</time>
      </trkpt>
      <trkpt lat="45.10238" lon="5.88764">
        <ele>1649</ele>
        <time>2013-09-28T12:49:12Z</time>
      </trkpt>
      <trkpt lat="45.10253" lon="5.88844">
        <ele>1668</ele>
        <time>2013-09-28T12:50:30Z</time>
      </trkpt>
      <trkpt lat="45.10277" lon="5.88919">
        <ele>1672</ele>
        <time>2013-09-28T12:51:48Z</time>
      </trkpt>
      <trkpt lat="45.10289" lon="5.88997">
        <ele>1671</ele>
        <time>2013-09-28T12:53:06Z</time>
      </trkpt>
      <trkpt lat="45.10278" lon="5.89091">
        <ele>1677</ele>
        <time>2013-09-28T12:54:25Z</time>
      </trkpt>
      <trkpt lat="45.10295" lon="5.89168">
        <ele>1693</ele>
        <time>2013-09-28T12:55:44Z</time>
      </trkpt>
      <trkpt lat="45.10315" lon="5.89222">
        <ele>1712</ele>
        <time>2013-09-28T12:57:03Z</time>
      </trkpt>
      <trkpt lat="45.10363" lon="5.89236">
        <ele>1717</ele>
        <time>2013-09-28T12:58:21Z</time>
      </trkpt>
      <trkpt lat="45.10395" lon="5.89249">
        <ele>1732</ele>
        <time>2013-09-28T12:59:39Z</time>
      </trkpt>
      <trkpt lat="45.10451" lon="5.89276">
        <ele>1720</ele>
        <time>2013-09-28T13:00:58Z</time>
      </trkpt>
      <trkpt lat="45.10504" lon="5.89339">
        <ele>1727</ele>
        <time>2013-09-28T13:02:17Z</time>
      </trkpt>
      <trkpt lat="45.10534" lon="5.89374">
        <ele>1737</ele>
        <time>2013-09-28T13:03:34Z</time>
      </trkpt>
      <trkpt lat="45.10558" lon="5.89426">
        <ele>1739</ele>
        <time>2013-09-28T13:04:52Z</time>
      </trkpt>
      <trkpt lat="45.10586" lon="5.89476">
        <ele>1748</ele>
        <time>2013-09-28T13:06:10Z</time>
      </trkpt>
      <trkpt lat="45.10603" lon="5.89506">
        <ele>1757</ele>
        <time>2013-09-28T13:07:38Z</time>
      </trkpt>
      <trkpt lat="45.10626" lon="5.89514">
        <ele>1764</ele>
        <time>2013-09-28T13:08:57Z</time>
      </trkpt>
      <trkpt lat="45.10646" lon="5.89537">
        <ele>1781</ele>
        <time>2013-09-28T13:10:18Z</time>
      </trkpt>
      <trkpt lat="45.10673" lon="5.89568">
        <ele>1772</ele>
        <time>2013-09-28T13:11:36Z</time>
      </trkpt>
      <trkpt lat="45.10694" lon="5.89574">
        <ele>1816</ele>
        <time>2013-09-28T13:13:05Z</time>
      </trkpt>
      <trkpt lat="45.10724" lon="5.89596">
        <ele>1820</ele>
        <time>2013-09-28T13:14:27Z</time>
      </trkpt>
      <trkpt lat="45.10748" lon="5.89615">
        <ele>1830</ele>
        <time>2013-09-28T13:15:56Z</time>
      </trkpt>
      <trkpt lat="45.10784" lon="5.8965">
        <ele>1848</ele>
        <time>2013-09-28T13:17:26Z</time>
      </trkpt>
      <trkpt lat="45.10804" lon="5.89662">
        <ele>1850</ele>
        <time>2013-09-28T13:18:46Z</time>
      </trkpt>
      <trkpt lat="45.10836" lon="5.89686">
        <ele>1851</ele>
        <time>2013-09-28T13:20:05Z</time>
      </trkpt>
      <trkpt lat="45.1085" lon="5.89731">
        <ele>1846</ele>
        <time>2013-09-28T13:21:25Z</time>
      </trkpt>
      <trkpt lat="45.10847" lon="5.89761">
        <ele>1861</ele>
        <time>2013-09-28T13:22:44Z</time>
      </trkpt>
      <trkpt lat="45.10866" lon="5.89817">
        <ele>1879</ele>
        <time>2013-09-28T13:24:03Z</time>
      </trkpt>
      <trkpt lat="45.10894" lon="5.89848">
        <ele>1890</ele>
        <time>2013-09-28T13:25:21Z</time>
      </trkpt>
      <trkpt lat="45.10916" lon="5.89907">
        <ele>1880</ele>
        <time>2013-09-28T13:26:39Z</time>
      </trkpt>
      <trkpt lat="45.1093" lon="5.89955">
        <ele>1879</ele>
        <time>2013-09-28T13:27:57Z</time>
      </trkpt>
      <trkpt lat="45.10962" lon="5.8999">
        <ele>1885</ele>
        <time>2013-09-28T13:29:15Z</time>
      </trkpt>
      <trkpt lat="45.10998" lon="5.90032">
        <ele>1884</ele>
        <time>2013-09-28T13:30:33Z</time>
      </trkpt>
      <trkpt lat="45.11037" lon="5.90066">
        <ele>1894</ele>
        <time>2013-09-28T13:31:51Z</time>
      </trkpt>
      <trkpt lat="45.11062" lon="5.90113">
        <ele>1911</ele>
        <time>2013-09-28T13:33:09Z</time>
      </trkpt>
      <trkpt lat="45.11092" lon="5.90121">
        <ele>1908</ele>
        <time>2013-09-28T13:34:28Z</time>
      </trkpt>
      <trkpt lat="45.11107" lon="5.90137">
        <ele>1924</ele>
        <time>2013-09-28T13:35:44Z</time>
      </trkpt>
      <trkpt lat="45.11154" lon="5.90148">
        <ele>1934</ele>
        <time>2013-09-28T13:37:03Z</time>
      </trkpt>
      <trkpt lat="45.112" lon="5.90184">
        <ele>1940</ele>
        <time>2013-09-28T13:38:26Z</time>
      </trkpt>
      <trkpt lat="45.11258" lon="5.90167">
        <ele>1929</ele>
        <time>2013-09-28T13:39:22Z</time>
      </trkpt>
      <trkpt lat="45.11288" lon="5.90163">
        <ele>1921</ele>
        <time>2013-09-28T13:40:41Z</time>
      </trkpt>
      <trkpt lat="45.11289" lon="5.90173">
        <ele>1919</ele>
        <time>2013-09-28T13:42:05Z</time>
      </trkpt>
      <trkpt lat="45.11313" lon="5.90244">
        <ele>1913</ele>
        <time>2013-09-28T13:43:34Z</time>
      </trkpt>
      <trkpt lat="45.11352" lon="5.90267">
        <ele>1943</ele>
        <time>2013-09-28T13:44:52Z</time>
      </trkpt>
      <trkpt lat="45.11384" lon="5.903">
        <ele>1944</ele>
        <time>2013-09-28T13:46:11Z</time>
      </trkpt>
      <trkpt lat="45.11408" lon="5.90325">
        <ele>1958</ele>
        <time>2013-09-28T13:47:33Z</time>
      </trkpt>
      <trkpt lat="45.11439" lon="5.90374">
        <ele>1963</ele>
        <time>2013-09-28T13:48:51Z</time>
      </trkpt>
      <trkpt lat="45.11483" lon="5.90392">
        <ele>1964</ele>
        <time>2013-09-28T13:50:10Z</time>
      </trkpt>
      <trkpt lat="45.11508" lon="5.90433">
        <ele>1969</ele>
        <time>2013-09-28T13:51:28Z</time>
      </trkpt>
      <trkpt lat="45.11546" lon="5.90454">
        <ele>1964</ele>
        <time>2013-09-28T13:52:29Z</time>
      </trkpt>
      <trkpt lat="45.11578" lon="5.90459">
        <ele>1966</ele>
        <time>2013-09-28T13:53:48Z</time>
      </trkpt>
      <trkpt lat="45.11623" lon="5.90474">
        <ele>1978</ele>
        <time>2013-09-28T13:55:05Z</time>
      </trkpt>
      <trkpt lat="45.11644" lon="5.90482">
        <ele>1988</ele>
        <time>2013-09-28T13:56:23Z</time>
      </trkpt>
      <trkpt lat="45.1168" lon="5.90494">
        <ele>1991</ele>
        <time>2013-09-28T13:57:53Z</time>
      </trkpt>
      <trkpt lat="45.11704" lon="5.90526">
        <ele>2017</ele>
        <time>2013-09-28T13:59:08Z</time>
      </trkpt>
      <trkpt lat="45.11748" lon="5.90554">
        <ele>2022</ele>
        <time>2013-09-28T14:00:37Z</time>
      </trkpt>
      <trkpt lat="45.11768" lon="5.90571">
        <ele>2033</ele>
        <time>2013-09-28T14:02:03Z</time>
      </trkpt>
      <trkpt lat="45.11777" lon="5.9058">
        <ele>2043</ele>
        <time>2013-09-28T14:02:56Z</time>
      </trkpt>
      <trkpt lat="45.11783" lon="5.90576">
        <ele>2036</ele>
        <time>2013-09-28T14:03:51Z</time>
      </trkpt>
      <trkpt lat="45.11785" lon="5.90584">
        <ele>2024</ele>
        <time>2013-09-28T14:04:56Z</time>
      </trkpt>
      <trkpt lat="45.11791" lon="5.90584">
        <ele>2038</ele>
        <time>2013-09-28T14:05:57Z</time>
      </trkpt>
      <trkpt lat="45.11793" lon="5.90582">
        <ele>2038</ele>
        <time>2013-09-28T14:06:46Z</time>
      </trkpt>
      <trkpt lat="45.11797" lon="5.90583">
        <ele>2037</ele>
        <time>2013-09-28T14:08:01Z</time>
      </trkpt>
      <trkpt lat="45.11825" lon="5.90642">
        <ele>2032</ele>
        <time>2013-09-28T14:09:19Z</time>
      </trkpt>
      <trkpt lat="45.1187" lon="5.90688">
        <ele>2033</ele>
        <time>2013-09-28T14:10:37Z</time>
      </trkpt>
      <trkpt lat="45.11919" lon="5.90732">
        <ele>2027</ele>
        <time>2013-09-28T14:12:01Z</time>
      </trkpt>
      <trkpt lat="45.11946" lon="5.9077">
        <ele>2044</ele>
        <time>2013-09-28T14:13:23Z</time>
      </trkpt>
      <trkpt lat="45.11956" lon="5.90792">
        <ele>2069</ele>
        <time>2013-09-28T14:14:30Z</time>
      </trkpt>
      <trkpt lat="45.11973" lon="5.90825">
        <ele>2066</ele>
        <time>2013-09-28T14:15:28Z</time>
      </trkpt>
      <trkpt lat="45.12002" lon="5.90848">
        <ele>2063</ele>
        <time>2013-09-28T14:16:44Z</time>
      </trkpt>
      <trkpt lat="45.12013" lon="5.90843">
        <ele>2060</ele>
        <time>2013-09-28T14:17:38Z</time>
      </trkpt>
      <trkpt lat="45.12036" lon="5.90857">
        <ele>2080</ele>
        <time>2013-09-28T14:18:59Z</time>
      </trkpt>
      <trkpt lat="45.1209" lon="5.90903">
        <ele>2076</ele>
        <time>2013-09-28T14:20:28Z</time>
      </trkpt>
      <trkpt lat="45.12116" lon="5.90934">
        <ele>2079</ele>
        <time>2013-09-28T14:21:28Z</time>
      </trkpt>
      <trkpt lat="45.12164" lon="5.90968">
        <ele>2067</ele>
        <time>2013-09-28T14:22:49Z</time>
      </trkpt>
      <trkpt lat="45.12198" lon="5.90973">
        <ele>2061</ele>
        <time>2013-09-28T14:24:17Z</time>
      </trkpt>
      <trkpt lat="45.12234" lon="5.91">
        <ele>2067</ele>
        <time>2013-09-28T14:25:46Z</time>
      </trkpt>
      <trkpt lat="45.12314" lon="5.91042">
        <ele>2062</ele>
        <time>2013-09-28T14:27:16Z</time>
      </trkpt>
      <trkpt lat="45.12386" lon="5.91027">
        <ele>2050</ele>
        <time>2013-09-28T14:28:45Z</time>
      </trkpt>
      <trkpt lat="45.12396" lon="5.91002">
        <ele>2105</ele>
        <time>2013-09-28T14:30:14Z</time>
      </trkpt>
      <trkpt lat="45.12375" lon="5.90998">
        <ele>2073</ele>
        <time>2013-09-28T14:31:44Z</time>
      </trkpt>
      <trkpt lat="45.12384" lon="5.91003">
        <ele>2071</ele>
        <time>2013-09-28T14:33:08Z</time>
      </trkpt>
      <trkpt lat="45.12413" lon="5.90971">
        <ele>2076</ele>
        <time>2013-09-28T14:34:29Z</time>
      </trkpt>
      <trkpt lat="45.12414" lon="5.90929">
        <ele>2082</ele>
        <time>2013-09-28T14:35:51Z</time>
      </trkpt>
      <trkpt lat="45.12427" lon="5.90904">
        <ele>2094</ele>
        <time>2013-09-28T14:37:11Z</time>
      </trkpt>
      <trkpt lat="45.12453" lon="5.90897">
        <ele>2114</ele>
        <time>2013-09-28T14:38:41Z</time>
      </trkpt>
      <trkpt lat="45.12462" lon="5.90935">
        <ele>2141</ele>
        <time>2013-09-28T14:40:11Z</time>
      </trkpt>
      <trkpt lat="45.12482" lon="5.90919">
        <ele>2131</ele>
        <time>2013-09-28T14:41:37Z</time>
      </trkpt>
      <trkpt lat="45.12494" lon="5.90921">
        <ele>2118</ele>
        <time>2013-09-28T14:43:02Z</time>
      </trkpt>
      <trkpt lat="45.1249" lon="5.90925">
        <ele>2127</ele>
        <time>2013-09-28T14:45:51Z</time>
      </trkpt>
      <trkpt lat="45.12499" lon="5.90943">
        <ele>2206</ele>
        <time>2013-09-28T14:46:53Z</time>
      </trkpt>
      <trkpt lat="45.12498" lon="5.90931">
        <ele>2164</ele>
        <time>2013-09-28T14:48:22Z</time>
      </trkpt>
      <trkpt lat="45.12508" lon="5.9096">
        <ele>2140</ele>
        <time>2013-09-28T14:49:52Z</time>
      </trkpt>
      <trkpt lat="45.12536" lon="5.90936">
        <ele>2132</ele>
        <time>2013-09-28T14:51:14Z</time>
      </trkpt>
      <trkpt lat="45.12572" lon="5.90954">
        <ele>2164</ele>
        <time>2013-09-28T14:52:43Z</time>
      </trkpt>
      <trkpt lat="45.1259" lon="5.90928">
        <ele>2162</ele>
        <time>2013-09-28T14:54:13Z</time>
      </trkpt>
      <trkpt lat="45.12596" lon="5.90852">
        <ele>2193</ele>
        <time>2013-09-28T14:55:42Z</time>
      </trkpt>
      <trkpt lat="45.12608" lon="5.90767">
        <ele>2178</ele>
        <time>2013-09-28T14:57:10Z</time>
      </trkpt>
      <trkpt lat="45.12633" lon="5.90717">
        <ele>2206</ele>
        <time>2013-09-28T14:58:28Z</time>
      </trkpt>
      <trkpt lat="45.12622" lon="5.90635">
        <ele>2223</ele>
        <time>2013-09-28T14:59:51Z</time>
      </trkpt>
      <trkpt lat="45.12612" lon="5.90585">
        <ele>2233</ele>
        <time>2013-09-28T15:01:09Z</time>
      </trkpt>
      <trkpt lat="45.12613" lon="5.90547">
        <ele>2230</ele>
        <time>2013-09-28T15:02:27Z</time>
      </trkpt>
      <trkpt lat="45.12621" lon="5.90502">
        <ele>2230</ele>
        <time>2013-09-28T15:03:38Z</time>
      </trkpt>
      <trkpt lat="45.1255" lon="5.90437">
        <ele>2233</ele>
        <time>2013-09-28T15:04:57Z</time>
      </trkpt>
      <trkpt lat="45.12481" lon="5.90237">
        <ele>2242</ele>
        <time>2013-09-28T15:05:57Z</time>
      </trkpt>
      <trkpt lat="45.12444" lon="5.9015">
        <ele>2216</ele>
        <time>2013-09-28T15:06:58Z</time>
      </trkpt>
      <trkpt lat="45.12362" lon="5.90066">
        <ele>2195</ele>
        <time>2013-09-28T15:08:17Z</time>
      </trkpt>
      <trkpt lat="45.12283" lon="5.89983">
        <ele>2185</ele>
        <time>2013-09-28T15:09:35Z</time>
      </trkpt>
      <trkpt lat="45.12282" lon="5.89979">
        <ele>2177</ele>
        <time>2013-09-28T15:10:54Z</time>
      </trkpt>
      <trkpt lat="45.12266" lon="5.89966">
        <ele>2169</ele>
        <time>2013-09-28T15:12:12Z</time>
      </trkpt>
      <trkpt lat="45.12164" lon="5.89977">
        <ele>2165</ele>
        <time>2013-09-28T15:13:30Z</time>
      </trkpt>
      <trkpt lat="45.1209" lon="5.89949">
        <ele>2161</ele>
        <time>2013-09-28T15:14:36Z</time>
      </trkpt>
      <trkpt lat="45.12036" lon="5.89867">
        <ele>2138</ele>
        <time>2013-09-28T15:15:55Z</time>
      </trkpt>
      <trkpt lat="45.11962" lon="5.89793">
        <ele>2128</ele>
        <time>2013-09-28T15:17:14Z</time>
      </trkpt>
      <trkpt lat="45.11896" lon="5.89729">
        <ele>2118</ele>
        <time>2013-09-28T15:18:22Z</time>
      </trkpt>
      <trkpt lat="45.11834" lon="5.89633">
        <ele>2108</ele>
        <time>2013-09-28T15:19:39Z</time>
      </trkpt>
      <trkpt lat="45.11792" lon="5.89529">
        <ele>2101</ele>
        <time>2013-09-28T15:20:58Z</time>
      </trkpt>
      <trkpt lat="45.11755" lon="5.89423">
        <ele>2082</ele>
        <time>2013-09-28T15:22:16Z</time>
      </trkpt>
      <trkpt lat="45.11717" lon="5.89336">
        <ele>2052</ele>
        <time>2013-09-28T15:23:34Z</time>
      </trkpt>
      <trkpt lat="45.11668" lon="5.89261">
        <ele>2031</ele>
        <time>2013-09-28T15:24:52Z</time>
      </trkpt>
      <trkpt lat="45.11606" lon="5.892">
        <ele>2020</ele>
        <time>2013-09-28T15:26:11Z</time>
      </trkpt>
      <trkpt lat="45.11593" lon="5.89132">
        <ele>2008</ele>
        <time>2013-09-28T15:27:01Z</time>
      </trkpt>
      <trkpt lat="45.11578" lon="5.89036">
        <ele>1993</ele>
        <time>2013-09-28T15:28:12Z</time>
      </trkpt>
      <trkpt lat="45.11554" lon="5.88968">
        <ele>1990</ele>
        <time>2013-09-28T15:29:06Z</time>
      </trkpt>
      <trkpt lat="45.11504" lon="5.88868">
        <ele>1964</ele>
        <time>2013-09-28T15:30:24Z</time>
      </trkpt>
      <trkpt lat="45.11445" lon="5.88794">
        <ele>1943</ele>
        <time>2013-09-28T15:31:42Z</time>
      </trkpt>
      <trkpt lat="45.11389" lon="5.88744">
        <ele>1922</ele>
        <time>2013-09-28T15:32:59Z</time>
      </trkpt>
      <trkpt lat="45.11353" lon="5.8867">
        <ele>1917</ele>
        <time>2013-09-28T15:34:04Z</time>
      </trkpt>
      <trkpt lat="45.11326" lon="5.88598">
        <ele>1900</ele>
        <time>2013-09-28T15:35:21Z</time>
      </trkpt>
      <trkpt lat="45.11291" lon="5.88505">
        <ele>1894</ele>
        <time>2013-09-28T15:36:29Z</time>
      </trkpt>
      <trkpt lat="45.11255" lon="5.88401">
        <ele>1883</ele>
        <time>2013-09-28T15:37:41Z</time>
      </trkpt>
      <trkpt lat="45.11232" lon="5.88414">
        <ele>1879</ele>
        <time>2013-09-28T15:38:41Z</time>
      </trkpt>
      <trkpt lat="45.11183" lon="5.88347">
        <ele>1858</ele>
        <time>2013-09-28T15:39:47Z</time>
      </trkpt>
      <trkpt lat="45.11164" lon="5.88298">
        <ele>1845</ele>
        <time>2013-09-28T15:40:49Z</time>
      </trkpt>
      <trkpt lat="45.11093" lon="5.88258">
        <ele>1837</ele>
        <time>2013-09-28T15:42:03Z</time>
      </trkpt>
      <trkpt lat="45.11049" lon="5.88247">
        <ele>1814</ele>
        <time>2013-09-28T15:43:12Z</time>
      </trkpt>
      <trkpt lat="45.11016" lon="5.88201">
        <ele>1826</ele>
        <time>2013-09-28T15:44:15Z</time>
      </trkpt>
      <trkpt lat="45.10965" lon="5.8812">
        <ele>1820</ele>
        <time>2013-09-28T15:45:28Z</time>
      </trkpt>
      <trkpt lat="45.10931" lon="5.88036">
        <ele>1811</ele>
        <time>2013-09-28T15:46:36Z</time>
      </trkpt>
      <trkpt lat="45.10889" lon="5.87943">
        <ele>1803</ele>
        <time>2013-09-28T15:47:52Z</time>
      </trkpt>
      <trkpt lat="45.10875" lon="5.87912">
        <ele>1788</ele>
        <time>2013-09-28T15:48:58Z</time>
      </trkpt>
      <trkpt lat="45.10873" lon="5.87908">
        <ele>1795</ele>
        <time>2013-09-28T15:50:03Z</time>
      </trkpt>
      <trkpt lat="45.10863" lon="5.8791">
        <ele>1799</ele>
        <time>2013-09-28T15:51:12Z</time>
      </trkpt>
      <trkpt lat="45.10856" lon="5.87915">
        <ele>1813</ele>
        <time>2013-09-28T16:07:00Z</time>
      </trkpt>
      <trkpt lat="45.10874" lon="5.87903">
        <ele>1802</ele>
        <time>2013-09-28T16:08:18Z</time>
      </trkpt>
      <trkpt lat="45.10834" lon="5.87844">
        <ele>1770</ele>
        <time>2013-09-28T16:09:36Z</time>
      </trkpt>
      <trkpt lat="45.10771" lon="5.87783">
        <ele>1767</ele>
        <time>2013-09-28T16:10:54Z</time>
      </trkpt>
      <trkpt lat="45.10694" lon="5.87723">
        <ele>1766</ele>
        <time>2013-09-28T16:12:12Z</time>
      </trkpt>
      <trkpt lat="45.10611" lon="5.87699">
        <ele>1753</ele>
        <time>2013-09-28T16:13:31Z</time>
      </trkpt>
      <trkpt lat="45.10527" lon="5.8766">
        <ele>1740</ele>
        <time>2013-09-28T16:14:39Z</time>
      </trkpt>
      <trkpt lat="45.1045" lon="5.87617">
        <ele>1723</ele>
        <time>2013-09-28T16:15:56Z</time>
      </trkpt>
      <trkpt lat="45.10359" lon="5.876">
        <ele>1711</ele>
        <time>2013-09-28T16:17:13Z</time>
      </trkpt>
      <trkpt lat="45.1028" lon="5.87621">
        <ele>1699</ele>
        <time>2013-09-28T16:18:31Z</time>
      </trkpt>
      <trkpt lat="45.10223" lon="5.87564">
        <ele>1693</ele>
        <time>2013-09-28T16:19:40Z</time>
      </trkpt>
      <trkpt lat="45.10172" lon="5.8765">
        <ele>1693</ele>
        <time>2013-09-28T16:20:56Z</time>
      </trkpt>
      <trkpt lat="45.10154" lon="5.87732">
        <ele>1688</ele>
        <time>2013-09-28T16:22:02Z</time>
      </trkpt>
      <trkpt lat="45.10106" lon="5.87802">
        <ele>1686</ele>
        <time>2013-09-28T16:23:19Z</time>
      </trkpt>
      <trkpt lat="45.10116" lon="5.87913">
        <ele>1693</ele>
        <time>2013-09-28T16:24:25Z</time>
      </trkpt>
      <trkpt lat="45.10144" lon="5.87974">
        <ele>1685</ele>
        <time>2013-09-28T16:25:42Z</time>
      </trkpt>
      <trkpt lat="45.10151" lon="5.88039">
        <ele>1690</ele>
        <time>2013-09-28T16:27:00Z</time>
      </trkpt>
      <trkpt lat="45.10126" lon="5.87956">
        <ele>1674</ele>
        <time>2013-09-28T16:28:01Z</time>
      </trkpt>
      <trkpt lat="45.1008" lon="5.8783">
        <ele>1678</ele>
        <time>2013-09-28T16:29:19Z</time>
      </trkpt>
      <trkpt lat="45.10102" lon="5.87883">
        <ele>1679</ele>
        <time>2013-09-28T16:30:24Z</time>
      </trkpt>
      <trkpt lat="45.10135" lon="5.8799">
        <ele>1682</ele>
        <time>2013-09-28T16:31:41Z</time>
      </trkpt>
      <trkpt lat="45.10163" lon="5.88088">
        <ele>1689</ele>
        <time>2013-09-28T16:32:59Z</time>
      </trkpt>
      <trkpt lat="45.10127" lon="5.88017">
        <ele>1684</ele>
        <time>2013-09-28T16:34:17Z</time>
      </trkpt>
    </trkseg>
  </trk>
</gpx>